Time;durP1;ratioP1;P1;durP2;ratioP2;P2;SDS_P1;SDS_P2;PMS_P1;PMS_P2;Temp;Humidity;BMP_temperature;BMP_pressure;BME280_temperature;BME280_humidity;BME280_pressure;Samples;Min_cycle;Max_cycle;Signal;HPM_P1;HPM_P2
2022/03/09 00:01:26;;;;;;;7.75;2.97;;;3.90;78.40;;;;;;5054084;28;20513;-74
2022/03/09 00:03:51;;;;;;;8.60;3.83;;;3.90;78.90;;;;;;5054197;28;20099;-75
2022/03/09 00:06:17;;;;;;;8.98;3.42;;;3.90;80.90;;;;;;5053980;28;20096;-75
2022/03/09 00:08:42;;;;;;;6.03;2.85;;;3.90;78.20;;;;;;5054305;28;20140;-75
2022/03/09 00:11:08;;;;;;;9.90;3.67;;;3.80;82.30;;;;;;5069352;28;20029;-75
2022/03/09 00:13:34;;;;;;;7.78;3.38;;;3.80;79.70;;;;;;5054555;28;20021;-75
2022/03/09 00:15:59;;;;;;;8.90;2.83;;;3.80;81.20;;;;;;5053723;28;20028;-75
2022/03/09 00:18:25;;;;;;;9.80;2.55;;;3.80;79.30;;;;;;5054072;28;20027;-75
2022/03/09 00:20:50;;;;;;;18.50;3.45;;;3.80;78.50;;;;;;5053932;28;20017;-75
2022/03/09 00:23:16;;;;;;;9.40;2.83;;;3.80;78.50;;;;;;5054044;28;20033;-75
2022/03/09 00:25:42;;;;;;;8.35;2.92;;;3.80;80.20;;;;;;5053950;28;20048;-75
2022/03/09 00:28:07;;;;;;;12.32;3.08;;;3.90;78.70;;;;;;5053507;28;20028;-75
2022/03/09 00:30:33;;;;;;;6.32;3.20;;;3.80;79.40;;;;;;5053490;28;20032;-75
2022/03/09 00:32:58;;;;;;;6.35;2.75;;;3.80;79.90;;;;;;5053751;28;20036;-75
2022/03/09 00:35:24;;;;;;;11.40;2.78;;;3.80;80.10;;;;;;5052218;28;20100;-75
2022/03/09 00:37:49;;;;;;;8.38;3.20;;;3.80;81.40;;;;;;5053286;28;20051;-75
2022/03/09 00:40:15;;;;;;;7.20;2.72;;;3.70;81.10;;;;;;5052241;28;20032;-75
2022/03/09 00:42:40;;;;;;;8.95;3.13;;;3.70;82.00;;;;;;5053801;28;20036;-75
2022/03/09 00:45:07;;;;;;;8.85;2.15;;;3.70;81.30;;;;;;5052081;28;20029;-75
2022/03/09 00:47:33;;;;;;;11.57;3.35;;;3.60;83.00;;;;;;5053311;28;20490;-75
2022/03/09 00:49:58;;;;;;;11.35;2.90;;;3.60;81.30;;;;;;5052093;28;20036;-75
2022/03/09 00:52:24;;;;;;;7.68;3.00;;;3.60;81.70;;;;;;5053276;28;20032;-75
2022/03/09 00:54:50;;;;;;;6.68;3.15;;;3.60;82.20;;;;;;5053590;28;20027;-75
2022/03/09 00:57:16;;;;;;;7.95;3.28;;;3.60;81.50;;;;;;5053404;28;20382;-75
2022/03/09 00:59:42;;;;;;;6.07;2.80;;;3.50;82.10;;;;;;5053131;28;20029;-75
2022/03/09 01:02:07;;;;;;;10.23;3.60;;;3.50;81.60;;;;;;5053244;28;20368;-75
2022/03/09 01:04:34;;;;;;;7.03;2.72;;;3.40;84.30;;;;;;5051907;28;20021;-75
2022/03/09 01:07:00;;;;;;;10.63;2.88;;;3.40;83.60;;;;;;5053098;28;20022;-75
2022/03/09 01:09:26;;;;;;;8.30;3.08;;;3.40;85.40;;;;;;5053024;28;20040;-75
2022/03/09 01:11:51;;;;;;;8.10;2.60;;;3.40;84.50;;;;;;5051769;28;20021;-75
2022/03/09 01:14:17;;;;;;;8.38;2.58;;;3.40;84.60;;;;;;5053088;28;20028;-75
2022/03/09 01:16:42;;;;;;;11.38;3.10;;;3.30;83.90;;;;;;5053234;28;20078;-75
2022/03/09 01:19:08;;;;;;;10.90;2.65;;;3.30;85.10;;;;;;5068493;28;20395;-75
2022/03/09 01:21:34;;;;;;;7.93;2.60;;;3.20;88.00;;;;;;5053018;28;20040;-75
2022/03/09 01:24:00;;;;;;;6.68;2.80;;;3.10;86.60;;;;;;5051879;28;20037;-75
2022/03/09 01:26:26;;;;;;;9.25;3.05;;;3.10;87.00;;;;;;5051689;28;20114;-75
2022/03/09 01:28:52;;;;;;;8.35;2.92;;;3.00;87.70;;;;;;5053496;28;20360;-75
2022/03/09 01:31:17;;;;;;;6.70;3.08;;;3.00;88.10;;;;;;5053193;28;20088;-75
2022/03/09 01:33:43;;;;;;;7.05;3.20;;;3.00;88.20;;;;;;5053763;28;20071;-75
2022/03/09 01:36:09;;;;;;;10.20;4.03;;;2.90;90.00;;;;;;5052901;28;20025;-75
2022/03/09 01:38:35;;;;;;;7.80;3.10;;;2.80;89.30;;;;;;5052892;28;20037;-75
2022/03/09 01:41:00;;;;;;;9.48;3.85;;;2.80;90.10;;;;;;5051547;28;20048;-74
2022/03/09 01:43:26;;;;;;;10.30;3.05;;;2.80;90.10;;;;;;5055886;28;20044;-75
2022/03/09 01:45:52;;;;;;;6.80;3.05;;;2.80;90.40;;;;;;5056646;28;20044;-75
2022/03/09 01:48:17;;;;;;;10.40;3.30;;;2.80;90.70;;;;;;5056676;28;20032;-75
2022/03/09 01:50:44;;;;;;;9.10;3.78;;;2.80;91.50;;;;;;5057192;28;20024;-75
2022/03/09 01:53:11;;;;;;;8.32;3.03;;;2.70;92.50;;;;;;5056715;28;20167;-75
2022/03/09 01:55:37;;;;;;;8.18;2.95;;;2.70;92.00;;;;;;5056800;28;20078;-75
2022/03/09 01:58:03;;;;;;;8.75;2.97;;;2.70;91.30;;;;;;5056538;28;20032;-75
2022/03/09 02:00:28;;;;;;;8.05;3.38;;;2.70;92.30;;;;;;5056839;28;20033;-75
2022/03/09 02:02:57;;;;;;;8.23;2.60;;;2.70;92.10;;;;;;5056821;28;20020;-75
2022/03/09 02:05:23;;;;;;;9.82;2.75;;;2.70;92.20;;;;;;5072381;28;20066;-75
2022/03/09 02:10:32;;;;;;;9.90;3.08;;;2.50;92.30;;;;;;5056800;28;20040;-75
2022/03/09 02:12:58;;;;;;;9.38;3.42;;;2.50;92.80;;;;;;5057485;28;20405;-75
2022/03/09 02:15:24;;;;;;;8.73;3.45;;;2.40;92.80;;;;;;5056810;28;20021;-75
2022/03/09 02:17:49;;;;;;;6.40;2.63;;;2.40;93.50;;;;;;5056477;28;20024;-75
2022/03/09 02:20:15;;;;;;;8.57;3.17;;;2.30;94.10;;;;;;5056657;28;20106;-75
2022/03/09 02:22:42;;;;;;;8.60;3.00;;;2.30;95.50;;;;;;5056876;28;20421;-74
2022/03/09 02:25:11;;;;;;;6.95;2.85;;;2.20;95.40;;;;;;5056391;28;20027;-75
2022/03/09 02:27:37;;;;;;;9.55;3.78;;;2.10;96.10;;;;;;5054995;28;20028;-75
2022/03/09 02:30:05;;;;;;;8.35;3.00;;;2.10;95.50;;;;;;5054496;28;20025;-75
2022/03/09 02:32:31;;;;;;;9.18;3.65;;;2.10;95.80;;;;;;5056153;28;20080;-75
2022/03/09 02:34:56;;;;;;;10.85;3.65;;;2.10;96.80;;;;;;5056623;28;20017;-75
2022/03/09 02:37:22;;;;;;;10.93;3.33;;;2.00;96.80;;;;;;5055023;28;20028;-75
2022/03/09 02:39:47;;;;;;;9.70;3.70;;;2.00;96.60;;;;;;5056359;28;20032;-75
2022/03/09 02:42:13;;;;;;;8.27;3.35;;;1.90;97.60;;;;;;5056276;28;20025;-74
2022/03/09 02:44:39;;;;;;;10.73;2.95;;;1.90;98.90;;;;;;5055894;28;20041;-75
2022/03/09 02:47:07;;;;;;;7.88;3.17;;;1.80;99.30;;;;;;5055915;28;20029;-75
2022/03/09 02:49:32;;;;;;;15.68;4.05;;;1.80;99.20;;;;;;5055894;28;20025;-75
2022/03/09 02:51:59;;;;;;;9.35;3.35;;;1.80;98.40;;;;;;5054516;28;20024;-75
2022/03/09 02:54:24;;;;;;;12.85;3.70;;;1.70;98.70;;;;;;5053370;28;20115;-75
2022/03/09 02:56:50;;;;;;;10.38;3.58;;;1.70;99.20;;;;;;5054307;28;20056;-74
2022/03/09 02:59:15;;;;;;;14.20;3.28;;;1.70;99.00;;;;;;5054528;28;20025;-75
2022/03/09 03:01:41;;;;;;;6.72;2.47;;;1.70;99.60;;;;;;5055555;28;20025;-75
2022/03/09 03:04:07;;;;;;;10.05;3.33;;;1.70;99.70;;;;;;5055688;28;20029;-75
2022/03/09 03:06:32;;;;;;;9.82;2.90;;;1.70;99.90;;;;;;5055258;28;20128;-75
2022/03/09 03:08:58;;;;;;;8.50;2.90;;;1.60;99.60;;;;;;5055631;28;20075;-75
2022/03/09 03:11:23;;;;;;;8.13;3.53;;;1.70;99.30;;;;;;5055797;28;20066;-75
2022/03/09 03:13:49;;;;;;;7.63;3.05;;;1.70;99.60;;;;;;5055828;28;20024;-75
2022/03/09 03:16:15;;;;;;;11.38;4.28;;;1.70;99.30;;;;;;5055404;28;20021;-75
2022/03/09 03:18:41;;;;;;;10.73;3.53;;;1.60;99.60;;;;;;5054184;28;20375;-74
2022/03/09 03:21:07;;;;;;;9.68;3.72;;;1.60;99.50;;;;;;5055564;28;20028;-75
2022/03/09 03:23:34;;;;;;;9.55;3.55;;;1.70;99.00;;;;;;5053849;28;20152;-75
2022/03/09 03:26:01;;;;;;;8.10;3.40;;;1.70;99.10;;;;;;5055668;28;20107;-75
2022/03/09 03:28:27;;;;;;;8.90;3.65;;;1.60;99.10;;;;;;5055140;28;20029;-75
2022/03/09 03:30:52;;;;;;;10.85;3.10;;;1.60;99.70;;;;;;5055463;28;20021;-74
2022/03/09 03:33:19;;;;;;;8.38;3.28;;;1.60;99.90;;;;;;5053708;28;20024;-75
2022/03/09 03:35:46;;;;;;;8.48;3.35;;;1.50;99.90;;;;;;5055056;28;20021;-75
2022/03/09 03:38:12;;;;;;;12.50;4.50;;;1.50;99.90;;;;;;5054903;28;20101;-75
2022/03/09 03:40:38;;;;;;;10.45;3.67;;;1.50;99.90;;;;;;5053285;28;20424;-74
2022/03/09 03:43:04;;;;;;;9.95;2.83;;;1.50;99.90;;;;;;5054845;28;20024;-75
2022/03/09 03:45:30;;;;;;;9.13;3.33;;;1.50;99.90;;;;;;5053532;28;20021;-75
2022/03/09 03:47:56;;;;;;;10.18;3.30;;;1.50;99.90;;;;;;5054831;28;20025;-75
2022/03/09 03:50:21;;;;;;;14.40;3.78;;;1.50;99.90;;;;;;5054592;28;20029;-75
2022/03/09 03:52:47;;;;;;;9.23;4.07;;;1.50;99.90;;;;;;5053621;28;20386;-75
2022/03/09 03:55:13;;;;;;;11.70;4.40;;;1.50;99.90;;;;;;5054970;28;20418;-75
2022/03/09 03:57:39;;;;;;;12.80;4.10;;;1.50;99.90;;;;;;5054656;28;20055;-75
2022/03/09 04:00:06;;;;;;;13.18;4.65;;;1.50;99.90;;;;;;5054505;28;20390;-75
2022/03/09 04:02:31;;;;;;;10.18;3.88;;;1.50;99.90;;;;;;5055045;28;20027;-75
2022/03/09 04:04:57;;;;;;;13.30;3.97;;;1.50;99.90;;;;;;5054373;28;20101;-75
2022/03/09 04:07:23;;;;;;;11.20;3.45;;;1.50;99.90;;;;;;5054959;28;20033;-75
2022/03/09 04:09:48;;;;;;;13.25;3.40;;;1.50;99.90;;;;;;5053062;28;20029;-75
2022/03/09 04:12:14;;;;;;;10.20;3.78;;;1.50;99.90;;;;;;5054216;28;20031;-75
2022/03/09 04:14:39;;;;;;;13.70;4.53;;;1.50;99.80;;;;;;5054445;28;20101;-75
2022/03/09 04:17:05;;;;;;;8.40;3.50;;;1.50;99.90;;;;;;5054454;28;20025;-75
2022/03/09 04:19:30;;;;;;;9.90;3.45;;;1.60;99.90;;;;;;5054379;28;20021;-75
2022/03/09 04:21:56;;;;;;;11.38;4.05;;;1.60;99.90;;;;;;5054334;28;20078;-75
2022/03/09 04:24:21;;;;;;;10.90;4.53;;;1.60;99.90;;;;;;5052919;28;20078;-75
2022/03/09 04:26:47;;;;;;;8.48;3.42;;;1.60;99.10;;;;;;5069681;28;20017;-74
2022/03/09 04:29:13;;;;;;;9.35;3.40;;;1.60;99.00;;;;;;5052949;28;20028;-74
2022/03/09 04:31:39;;;;;;;10.60;3.28;;;1.60;99.20;;;;;;5054258;28;20029;-73
2022/03/09 04:34:04;;;;;;;11.02;3.95;;;1.60;98.90;;;;;;5049166;28;20025;-74
2022/03/09 04:36:30;;;;;;;11.00;3.60;;;1.60;99.00;;;;;;5054245;28;20037;-74
2022/03/09 04:38:55;;;;;;;13.05;3.65;;;1.60;99.00;;;;;;5052653;28;20031;-73
2022/03/09 04:41:21;;;;;;;12.73;4.13;;;1.50;99.20;;;;;;5053898;28;20028;-73
2022/03/09 04:43:48;;;;;;;9.93;4.28;;;1.50;99.90;;;;;;5052729;28;20021;-74
2022/03/09 04:46:13;;;;;;;11.05;4.40;;;1.50;99.90;;;;;;5033841;28;20537;-73
2022/03/09 04:48:39;;;;;;;9.35;3.53;;;1.50;99.90;;;;;;5034248;28;20029;-74
2022/03/09 04:51:04;;;;;;;9.10;3.80;;;1.40;99.90;;;;;;5034035;28;20018;-74
2022/03/09 04:53:30;;;;;;;11.43;2.80;;;1.40;99.90;;;;;;5033648;28;20117;-73
2022/03/09 04:55:56;;;;;;;11.45;4.65;;;1.30;99.90;;;;;;5034042;28;20422;-73
2022/03/09 04:58:23;;;;;;;9.32;4.00;;;1.30;99.90;;;;;;5033551;28;20078;-73
2022/03/09 05:00:49;;;;;;;7.93;2.95;;;1.30;99.90;;;;;;5033799;28;20029;-73
2022/03/09 05:03:15;;;;;;;12.13;4.18;;;1.30;99.90;;;;;;5032707;28;20450;-73
2022/03/09 05:05:41;;;;;;;13.75;3.40;;;1.30;99.90;;;;;;5034144;28;20105;-73
2022/03/09 05:08:06;;;;;;;14.05;4.45;;;1.20;99.90;;;;;;5033882;28;20104;-73
2022/03/09 05:10:32;;;;;;;9.98;4.05;;;1.20;99.90;;;;;;5033655;28;19915;-74
2022/03/09 05:12:58;;;;;;;10.20;3.92;;;1.20;99.90;;;;;;5033929;28;20035;-73
2022/03/09 05:15:23;;;;;;;11.63;3.50;;;1.20;99.90;;;;;;5033201;28;20533;-73
2022/03/09 05:17:49;;;;;;;9.30;3.70;;;1.10;99.90;;;;;;5035506;28;20060;-73
2022/03/09 05:20:15;;;;;;;11.35;3.95;;;1.20;99.90;;;;;;5036484;28;20030;-73
2022/03/09 05:22:41;;;;;;;9.50;4.05;;;1.20;99.90;;;;;;5040976;28;20028;-73
2022/03/09 05:25:07;;;;;;;10.50;3.95;;;1.20;99.90;;;;;;5058280;28;20020;-74
2022/03/09 05:27:33;;;;;;;9.50;3.55;;;1.10;99.90;;;;;;5057525;28;20060;-73
2022/03/09 05:29:59;;;;;;;9.52;3.75;;;1.10;99.90;;;;;;5057440;28;20055;-73
2022/03/09 05:32:25;;;;;;;10.15;4.18;;;1.10;99.90;;;;;;5056809;28;20021;-73
2022/03/09 05:34:51;;;;;;;11.45;3.80;;;1.00;99.90;;;;;;5037431;28;20471;-73
2022/03/09 05:37:17;;;;;;;10.07;3.63;;;1.00;99.90;;;;;;5037638;28;20033;-73
2022/03/09 05:39:43;;;;;;;8.70;3.40;;;1.00;99.90;;;;;;5037495;28;20018;-73
2022/03/09 05:42:09;;;;;;;10.73;3.80;;;0.90;99.90;;;;;;5037358;28;20040;-73
2022/03/09 05:44:35;;;;;;;14.07;3.60;;;0.90;99.90;;;;;;5036149;28;20109;-73
2022/03/09 05:47:04;;;;;;;10.95;4.45;;;0.90;99.90;;;;;;5037127;28;20041;-73
2022/03/09 05:49:30;;;;;;;12.02;4.75;;;0.90;99.90;;;;;;5037307;28;20486;-73
2022/03/09 05:51:56;;;;;;;9.77;3.45;;;0.90;99.90;;;;;;5037096;28;20013;-73
2022/03/09 05:54:21;;;;;;;12.52;3.53;;;0.90;99.90;;;;;;5053142;28;20035;-73
2022/03/09 05:56:47;;;;;;;9.85;3.85;;;0.90;99.90;;;;;;5056986;28;20013;-73
2022/03/09 05:59:13;;;;;;;22.65;5.10;;;0.90;99.90;;;;;;5057004;28;20104;-73
2022/03/09 06:01:38;;;;;;;13.75;4.03;;;1.00;99.90;;;;;;5057258;28;20053;-73
2022/03/09 06:04:04;;;;;;;11.23;3.90;;;0.90;99.90;;;;;;5050453;28;20425;-73
2022/03/09 06:06:30;;;;;;;10.35;3.50;;;0.90;99.90;;;;;;5057047;28;20100;-74
2022/03/09 06:08:57;;;;;;;10.45;3.70;;;0.90;99.90;;;;;;5057337;28;20020;-73
2022/03/09 06:11:23;;;;;;;10.63;4.15;;;1.00;99.90;;;;;;5055347;28;20021;-73
2022/03/09 06:13:48;;;;;;;13.38;4.75;;;0.90;99.90;;;;;;5051253;28;20022;-73
2022/03/09 06:16:14;;;;;;;10.05;3.42;;;0.90;99.90;;;;;;5053978;28;20114;-73
2022/03/09 06:18:40;;;;;;;9.13;3.47;;;1.00;99.90;;;;;;5057001;28;20028;-74
2022/03/09 06:21:05;;;;;;;7.80;3.40;;;1.00;99.90;;;;;;5055198;28;20029;-73
2022/03/09 06:23:31;;;;;;;9.40;3.40;;;1.00;99.90;;;;;;5054418;28;20096;-73
2022/03/09 06:25:57;;;;;;;12.60;3.92;;;1.00;99.90;;;;;;5036387;28;20036;-73
2022/03/09 06:28:22;;;;;;;9.13;3.17;;;1.00;99.90;;;;;;5036077;28;20048;-73
2022/03/09 06:30:48;;;;;;;11.90;3.30;;;1.10;99.90;;;;;;5036531;28;20052;-73
2022/03/09 06:33:14;;;;;;;9.43;3.17;;;1.10;99.90;;;;;;5036746;28;20475;-73
2022/03/09 06:35:40;;;;;;;11.23;3.75;;;1.10;99.90;;;;;;5054377;28;20025;-73
2022/03/09 06:38:08;;;;;;;11.65;3.63;;;1.20;99.90;;;;;;5054768;28;20033;-75
2022/03/09 06:40:33;;;;;;;13.30;3.15;;;1.20;99.90;;;;;;5056519;28;20082;-75
2022/03/09 06:43:00;;;;;;;8.13;3.45;;;1.30;99.90;;;;;;5055024;28;20028;-76
2022/03/09 06:45:26;;;;;;;12.43;4.22;;;1.40;99.70;;;;;;5039538;28;20491;-76
2022/03/09 06:47:52;;;;;;;13.30;4.50;;;1.40;99.50;;;;;;5034829;28;20071;-75
2022/03/09 06:50:18;;;;;;;10.90;3.20;;;1.50;99.90;;;;;;5036432;28;20109;-76
2022/03/09 06:52:44;;;;;;;9.60;3.72;;;1.50;99.70;;;;;;5053247;28;20017;-76
2022/03/09 06:55:12;;;;;;;7.53;4.20;;;1.60;99.00;;;;;;5056378;28;20029;-76
2022/03/09 06:57:38;;;;;;;10.18;3.47;;;1.60;98.70;;;;;;5056041;28;20377;-76
2022/03/09 07:00:06;;;;;;;11.00;3.83;;;1.70;98.80;;;;;;5055612;28;20029;-75
2022/03/09 07:02:31;;;;;;;9.27;3.28;;;1.80;98.60;;;;;;5037512;28;20030;-75
2022/03/09 07:04:57;;;;;;;7.47;3.20;;;1.80;98.90;;;;;;5047943;28;20105;-75
2022/03/09 07:07:22;;;;;;;10.02;3.25;;;1.90;98.50;;;;;;5054161;28;20075;-75
2022/03/09 07:09:48;;;;;;;11.38;4.10;;;2.00;98.10;;;;;;5055591;28;20032;-76
2022/03/09 07:12:13;;;;;;;14.82;3.92;;;2.00;97.90;;;;;;5055876;28;20067;-74
2022/03/09 07:14:39;;;;;;;13.82;3.42;;;2.10;97.30;;;;;;5054501;28;20083;-74
2022/03/09 07:17:04;;;;;;;11.38;3.60;;;2.30;96.40;;;;;;5070982;28;20184;-73
2022/03/09 07:19:30;;;;;;;15.02;3.88;;;2.40;95.80;;;;;;5055540;28;20424;-74
2022/03/09 07:21:55;;;;;;;9.07;3.13;;;2.50;95.00;;;;;;5055829;28;20025;-72
2022/03/09 07:24:21;;;;;;;8.77;2.88;;;2.50;94.20;;;;;;5055306;28;20033;-72
2022/03/09 07:26:46;;;;;;;8.05;2.90;;;2.60;93.70;;;;;;5055399;28;20490;-72
2022/03/09 07:29:12;;;;;;;10.40;3.92;;;2.70;93.20;;;;;;5055201;28;20024;-73
2022/03/09 07:31:39;;;;;;;10.55;3.60;;;2.90;92.20;;;;;;5055050;28;20021;-73
2022/03/09 07:34:04;;;;;;;8.43;3.30;;;2.90;91.40;;;;;;5054912;28;20467;-72
2022/03/09 07:36:30;;;;;;;12.13;3.10;;;3.00;90.90;;;;;;5055003;28;20021;-73
2022/03/09 07:38:56;;;;;;;10.20;3.15;;;3.10;90.70;;;;;;5053909;28;20471;-75
2022/03/09 07:41:21;;;;;;;7.97;3.20;;;3.20;89.50;;;;;;5054539;28;20052;-74
2022/03/09 07:43:47;;;;;;;17.38;4.90;;;3.30;87.80;;;;;;5055139;28;20025;-73
2022/03/09 07:46:12;;;;;;;11.40;2.63;;;3.40;86.50;;;;;;5055295;28;20025;-72
2022/03/09 07:48:38;;;;;;;12.30;3.28;;;3.50;85.30;;;;;;5053432;28;20479;-73
2022/03/09 07:51:04;;;;;;;9.98;4.35;;;3.60;85.10;;;;;;5055381;28;20103;-73
2022/03/09 07:53:30;;;;;;;7.18;3.15;;;3.70;84.40;;;;;;5054662;28;20021;-73
2022/03/09 07:55:55;;;;;;;11.60;3.80;;;3.70;83.50;;;;;;5054683;28;20025;-72
2022/03/09 07:58:21;;;;;;;10.30;4.13;;;3.90;82.80;;;;;;5054728;28;20024;-73
2022/03/09 08:00:47;;;;;;;15.07;3.75;;;3.90;82.30;;;;;;5053352;28;20047;-73
2022/03/09 08:03:12;;;;;;;13.95;4.32;;;4.00;81.50;;;;;;5055061;28;20070;-73
2022/03/09 08:05:38;;;;;;;8.45;3.28;;;4.10;79.80;;;;;;5054630;28;20021;-73
2022/03/09 08:08:03;;;;;;;11.30;4.57;;;4.20;80.10;;;;;;5054744;28;20025;-73
2022/03/09 08:10:29;;;;;;;8.00;3.42;;;4.30;79.70;;;;;;5055339;28;20385;-73
2022/03/09 08:12:55;;;;;;;14.73;3.40;;;4.30;78.40;;;;;;5054898;28;20094;-73
2022/03/09 08:15:21;;;;;;;13.48;4.47;;;4.50;78.00;;;;;;5054569;28;20025;-73
2022/03/09 08:17:46;;;;;;;12.77;3.88;;;4.60;76.60;;;;;;5053417;28;20128;-73
2022/03/09 08:20:12;;;;;;;8.88;3.42;;;4.70;76.60;;;;;;5054503;28;20032;-73
2022/03/09 08:22:39;;;;;;;13.57;3.30;;;4.80;76.40;;;;;;5054389;28;20029;-73
2022/03/09 08:25:06;;;;;;;8.38;2.97;;;4.90;76.00;;;;;;5054451;28;20028;-73
2022/03/09 08:27:31;;;;;;;9.80;3.83;;;5.00;74.80;;;;;;5054471;28;20367;-73
2022/03/09 08:29:57;;;;;;;10.25;3.38;;;5.20;72.90;;;;;;5054474;28;20017;-74
2022/03/09 08:32:23;;;;;;;11.02;4.35;;;5.30;72.10;;;;;;5054107;28;20025;-73
2022/03/09 08:34:49;;;;;;;12.20;3.35;;;5.40;70.30;;;;;;5054153;28;20383;-73
2022/03/09 08:37:16;;;;;;;13.13;3.63;;;5.30;70.60;;;;;;5053664;28;20036;-73
2022/03/09 08:39:47;;;;;;;9.50;3.47;;;5.40;70.50;;;;;;5053737;28;20053;-73
2022/03/09 08:42:12;;;;;;;9.68;3.33;;;7.20;73.00;;;;;;5052368;28;20060;-73
2022/03/09 08:44:38;;;;;;;10.05;4.10;;;5.50;70.70;;;;;;5052501;28;20024;-73
2022/03/09 08:47:04;;;;;;;12.23;3.65;;;5.60;70.60;;;;;;5052151;28;20449;-73
2022/03/09 08:49:30;;;;;;;9.93;3.33;;;5.60;71.00;;;;;;5052905;28;20025;-73
2022/03/09 08:51:56;;;;;;;12.52;4.70;;;5.70;71.10;;;;;;5053245;28;20013;-73
2022/03/09 08:54:22;;;;;;;10.25;3.55;;;5.90;70.00;;;;;;5053549;28;20025;-73
2022/03/09 08:56:47;;;;;;;14.18;4.40;;;6.00;69.00;;;;;;5053368;28;20040;-73
2022/03/09 08:59:13;;;;;;;8.82;3.72;;;6.10;67.50;;;;;;5053269;28;20029;-73
2022/03/09 09:01:39;;;;;;;7.32;3.13;;;6.20;68.00;;;;;;5053547;28;20036;-73
2022/03/09 09:04:04;;;;;;;13.52;4.38;;;6.30;67.50;;;;;;5053150;28;20467;-73
2022/03/09 09:06:33;;;;;;;10.05;4.35;;;6.40;67.70;;;;;;5053418;28;20021;-73
2022/03/09 09:08:58;;;;;;;10.30;3.80;;;6.50;66.60;;;;;;5053118;28;20106;-73
2022/03/09 09:11:24;;;;;;;9.15;3.42;;;6.60;65.50;;;;;;5051875;28;20503;-73
2022/03/09 09:13:49;;;;;;;11.98;4.22;;;6.70;64.90;;;;;;5054119;28;20021;-73
2022/03/09 09:16:15;;;;;;;7.95;3.40;;;6.70;66.20;;;;;;5053023;28;20025;-73
2022/03/09 09:18:43;;;;;;;14.85;4.63;;;6.90;65.10;;;;;;5053520;28;20025;-73
2022/03/09 09:21:08;;;;;;;7.38;3.35;;;6.90;64.60;;;;;;5053911;28;20017;-73
2022/03/09 09:23:36;;;;;;;9.75;3.60;;;7.00;63.90;;;;;;5054161;28;20462;-73
2022/03/09 09:26:03;;;;;;;10.80;4.03;;;7.10;64.20;;;;;;5053450;28;20055;-73
2022/03/09 09:28:28;;;;;;;10.75;4.35;;;7.20;64.10;;;;;;5051973;28;20112;-73
2022/03/09 09:30:54;;;;;;;13.38;4.85;;;7.30;63.10;;;;;;5053448;28;20497;-73
2022/03/09 09:33:19;;;;;;;11.55;4.35;;;7.30;62.50;;;;;;5053926;28;20021;-73
2022/03/09 09:35:45;;;;;;;12.20;4.68;;;7.40;62.60;;;;;;5053404;28;20035;-73
2022/03/09 09:38:10;;;;;;;10.75;3.97;;;7.40;63.10;;;;;;5053365;28;20064;-73
2022/03/09 09:40:41;;;;;;;10.55;3.63;;;7.50;63.70;;;;;;5052484;28;20483;-73
2022/03/09 09:43:10;;;;;;;10.75;4.00;;;7.60;63.60;;;;;;5053877;28;20025;-73
2022/03/09 09:45:35;;;;;;;;;;;7.70;62.30;;;;;;5052688;28;20028;-73
2022/03/09 09:48:05;;;;;;;9.75;3.78;;;7.80;62.40;;;;;;5053191;28;19904;-73
2022/03/09 09:50:35;;;;;;;9.25;4.15;;;7.90;61.90;;;;;;5053524;28;20032;-73
2022/03/09 09:53:06;;;;;;;12.50;4.80;;;8.00;62.70;;;;;;5053270;28;20221;-73
2022/03/09 09:55:32;;;;;;;24.73;5.60;;;8.10;62.80;;;;;;5053345;28;20021;-73
2022/03/09 09:57:58;;;;;;;14.63;4.63;;;8.20;61.70;;;;;;5052276;28;20364;-73
2022/03/09 10:00:24;;;;;;;13.95;5.07;;;8.30;61.40;;;;;;5052046;28;20033;-73
2022/03/09 10:02:50;;;;;;;10.18;4.00;;;8.40;60.60;;;;;;5054013;28;20109;-73
2022/03/09 10:05:18;;;;;;;17.48;4.47;;;8.50;61.30;;;;;;5057201;28;20104;-73
2022/03/09 10:08:03;;;;;;;12.88;5.07;;;8.70;59.90;;;;;;5056419;28;20412;-73
2022/03/09 10:10:29;;;;;;;13.98;5.03;;;8.80;59.30;;;;;;5055604;28;20029;-73
2022/03/09 10:13:19;;;;;;;10.07;4.20;;;8.90;59.30;;;;;;5057008;28;20021;-73
2022/03/09 10:15:48;;;;;;;10.30;4.35;;;9.00;59.10;;;;;;5056761;28;20024;-73
2022/03/09 10:18:21;;;;;;;;;;;9.10;59.40;;;;;;5057159;28;20374;-73
2022/03/09 10:20:48;;;;;;;18.27;4.97;;;9.20;58.70;;;;;;5056729;28;19958;-73
2022/03/09 10:23:16;;;;;;;14.25;5.57;;;9.30;58.40;;;;;;5056727;28;20024;-73
2022/03/09 10:25:42;;;;;;;15.40;5.25;;;9.40;58.20;;;;;;5056531;28;20429;-73
2022/03/09 10:28:10;;;;;;;10.63;4.35;;;9.50;58.10;;;;;;5056686;28;20025;-73
2022/03/09 10:30:39;;;;;;;15.82;5.45;;;9.60;57.20;;;;;;5056690;28;20025;-73
2022/03/09 10:33:09;;;;;;;9.70;3.90;;;9.70;57.40;;;;;;5056339;28;20024;-73
2022/03/09 10:35:47;;;;;;;13.15;5.65;;;9.80;57.70;;;;;;5055242;28;20415;-73
2022/03/09 10:38:15;;;;;;;14.45;5.03;;;9.80;57.40;;;;;;5056281;28;20054;-73
2022/03/09 10:40:50;;;;;;;15.75;4.95;;;9.90;58.00;;;;;;5055222;28;20025;-73
2022/03/09 10:43:18;;;;;;;14.85;6.07;;;10.00;56.80;;;;;;5056875;28;20024;-73
2022/03/09 10:45:59;;;;;;;12.52;5.28;;;10.00;57.50;;;;;;5056226;28;20032;-73
2022/03/09 10:48:47;;;;;;;11.35;4.78;;;10.10;58.00;;;;;;5054624;28;20032;-73
2022/03/09 10:51:32;;;;;;;15.17;5.60;;;10.30;57.40;;;;;;5055941;28;20017;-73
2022/03/09 10:54:00;;;;;;;12.65;4.90;;;10.50;57.90;;;;;;5056681;28;20352;-73
2022/03/09 10:56:25;;;;;;;15.65;7.05;;;10.70;57.00;;;;;;5055941;28;20055;-73
2022/03/09 10:58:51;;;;;;;15.05;5.63;;;10.80;55.90;;;;;;5054627;28;20051;-73
2022/03/09 11:01:19;;;;;;;14.00;5.40;;;10.90;55.40;;;;;;5056539;28;20010;-73
2022/03/09 11:03:45;;;;;;;17.75;5.97;;;11.00;54.80;;;;;;5055794;28;20074;-73
2022/03/09 11:06:11;;;;;;;18.50;6.85;;;11.10;55.30;;;;;;5055922;28;20474;-73
2022/03/09 11:08:38;;;;;;;17.88;6.55;;;11.20;54.80;;;;;;5053894;28;20429;-73
2022/03/09 11:11:09;;;;;;;23.02;7.50;;;11.40;54.80;;;;;;5055397;28;20017;-73
2022/03/09 11:13:36;;;;;;;16.52;5.90;;;11.50;54.70;;;;;;5056252;28;20417;-73
2022/03/09 11:16:03;;;;;;;12.63;5.28;;;11.60;53.60;;;;;;5054652;28;20026;-73
2022/03/09 11:18:31;;;;;;;15.65;5.75;;;11.60;52.90;;;;;;5055240;28;20021;-74
2022/03/09 11:21:00;;;;;;;18.10;6.75;;;11.60;54.20;;;;;;5053736;28;20052;-74
2022/03/09 11:23:28;;;;;;;14.43;5.72;;;11.80;54.00;;;;;;5055209;28;20486;-74
2022/03/09 11:26:18;;;;;;;15.98;6.32;;;11.90;52.60;;;;;;5053878;28;20075;-74
2022/03/09 11:29:00;;;;;;;18.95;6.68;;;12.00;53.10;;;;;;5055172;28;20453;-74
2022/03/09 11:31:45;;;;;;;17.80;7.03;;;12.10;52.80;;;;;;5053827;28;20021;-73
2022/03/09 11:34:38;;;;;;;15.13;6.25;;;12.20;52.50;;;;;;5054846;28;20025;-74
2022/03/09 11:37:06;;;;;;;16.88;7.43;;;12.40;52.50;;;;;;5054487;28;20026;-74
2022/03/09 11:39:33;;;;;;;17.45;7.13;;;12.60;52.80;;;;;;5054588;28;20502;-74
2022/03/09 11:42:20;;;;;;;19.98;7.20;;;12.70;51.80;;;;;;5054847;28;20091;-74
2022/03/09 11:44:50;;;;;;;19.20;7.15;;;12.80;51.60;;;;;;5054715;28;20025;-74
2022/03/09 11:47:16;;;;;;;19.20;7.15;;;13.00;50.40;;;;;;5054345;28;20021;-77
2022/03/09 11:49:42;;;;;;;16.63;6.53;;;13.10;50.80;;;;;;5052882;28;20421;-75
2022/03/09 11:52:11;;;;;;;19.08;6.70;;;13.20;49.90;;;;;;5052970;28;20025;-74
2022/03/09 11:54:43;;;;;;;17.85;6.68;;;13.30;50.40;;;;;;5054166;28;20039;-74
2022/03/09 11:57:10;;;;;;;19.65;6.53;;;13.50;49.60;;;;;;5054088;28;20025;-73
2022/03/09 11:59:36;;;;;;;18.95;8.45;;;13.60;49.60;;;;;;5054126;28;20033;-74
2022/03/09 12:02:12;;;;;;;14.68;7.07;;;13.80;48.70;;;;;;5052383;28;20068;-73
2022/03/09 12:04:48;;;;;;;19.40;7.00;;;13.90;48.90;;;;;;5054265;28;20033;-74
2022/03/09 12:07:37;;;;;;;20.08;6.95;;;14.10;48.60;;;;;;5054450;28;20048;-74
2022/03/09 12:10:04;;;;;;;17.27;7.53;;;13.90;47.90;;;;;;5054341;28;20439;-73
2022/03/09 12:12:32;;;;;;;21.30;7.22;;;14.00;48.60;;;;;;5053828;28;20027;-74
2022/03/09 12:14:58;;;;;;;16.42;6.93;;;14.30;48.60;;;;;;5053668;28;20021;-73
2022/03/09 12:17:32;;;;;;;19.15;7.85;;;14.50;47.50;;;;;;5053717;28;20021;-73
2022/03/09 12:20:23;;;;;;;16.73;7.20;;;14.50;46.40;;;;;;5053714;28;20047;-74
2022/03/09 12:23:01;;;;;;;18.55;6.88;;;14.70;46.70;;;;;;5053579;28;20025;-73
2022/03/09 12:25:46;;;;;;;21.17;8.40;;;14.90;45.50;;;;;;5052319;28;20036;-73
2022/03/09 12:28:24;;;;;;;17.27;7.25;;;15.00;43.80;;;;;;5052513;28;20025;-74
2022/03/09 12:30:57;;;;;;;18.40;8.10;;;14.90;43.20;;;;;;5053753;28;20513;-74
2022/03/09 12:33:32;;;;;;;19.65;7.22;;;14.80;44.00;;;;;;5053698;28;20129;-74
2022/03/09 12:36:08;;;;;;;17.67;7.18;;;14.90;43.80;;;;;;5053453;28;20029;-74
2022/03/09 12:38:41;;;;;;;16.98;7.03;;;14.90;44.20;;;;;;5053214;28;20033;-73
2022/03/09 12:41:41;;;;;;;15.80;7.13;;;15.10;44.30;;;;;;5053459;28;20033;-73
2022/03/09 12:44:18;;;;;;;17.67;7.28;;;15.10;44.00;;;;;;5053821;28;20060;-74
2022/03/09 12:46:47;;;;;;;14.20;6.50;;;15.30;43.30;;;;;;5053134;28;20048;-74
2022/03/09 12:49:37;;;;;;;18.67;7.50;;;15.60;44.50;;;;;;5053171;28;20075;-74
2022/03/09 12:52:09;;;;;;;18.13;7.38;;;15.90;44.10;;;;;;5053180;28;20021;-74
2022/03/09 12:54:36;;;;;;;18.58;8.68;;;16.20;42.80;;;;;;5053137;28;20027;-73